Time;durP1;ratioP1;P1;durP2;ratioP2;P2;SDS_P1;SDS_P2;PMS_P1;PMS_P2;Temp;Humidity;BMP_temperature;BMP_pressure;BME280_temperature;BME280_humidity;BME280_pressure;Samples;Min_cycle;Max_cycle;Signal;HPM_P1;HPM_P2
2021/11/22 00:00:52;;;;;;;;;;;;;;;14.97;61.44;100515.53;5002863;27;98035;-65
2021/11/22 00:03:19;;;;;;;;;;;;;;;14.96;61.41;100518.50;5002981;27;100399;-65
2021/11/22 00:05:45;;;;;;;;;;;;;;;14.94;61.05;100521.53;4985358;27;97811;-65
2021/11/22 00:08:11;;;;;;;;;;;;;;;14.94;61.41;100526.97;5003485;27;105082;-65
2021/11/22 00:10:37;;;;;;;;;;;;;;;14.94;61.43;100529.69;4984114;27;98509;-65
2021/11/22 00:13:03;;;;;;;;;;;;;;;14.94;61.24;100534.31;4983144;27;99731;-65
2021/11/22 00:15:29;;;;;;;;;;;;;;;14.93;61.55;100529.94;5002793;27;97923;-65
2021/11/22 00:17:55;;;;;;;;;;;;;;;14.93;61.35;100529.94;5002596;27;124255;-57
2021/11/22 00:20:21;;;;;;;;;;;;;;;14.91;61.38;100532.97;5002923;27;97967;-58
2021/11/22 00:22:47;;;;;;;;;;;;;;;14.91;61.27;100532.16;5002645;27;98156;-65
2021/11/22 00:25:14;;;;;;;;;;;;;;;14.90;61.27;100536.00;5002586;27;106906;-65
2021/11/22 00:27:40;;;;;;;;;;;;;;;14.89;61.32;100539.78;5002550;27;115431;-64
2021/11/22 00:30:06;;;;;;;;;;;;;;;14.87;61.42;100539.28;5002105;27;119269;-65
2021/11/22 00:32:34;;;;;;;;;;;;;;;14.87;61.38;100547.44;5001577;27;116375;-58
2021/11/22 00:35:00;;;;;;;;;;;;;;;14.85;61.57;100555.84;5002821;27;98107;-58
2021/11/22 00:37:32;;;;;;;;;;;;;;;14.85;61.50;100555.03;5001909;27;98652;-58
2021/11/22 00:40:00;;;;;;;;;;;;;;;14.85;61.52;100553.13;5003312;27;98354;-65
2021/11/22 00:42:26;;;;;;;;;;;;;;;14.84;61.42;100556.16;5002651;27;97795;-58
2021/11/22 00:44:52;;;;;;;;;;;;;;;14.84;61.42;100556.94;5002969;27;97880;-58
2021/11/22 00:47:18;;;;;;;;;;;;;;;14.82;61.21;100559.16;5001799;27;123680;-58
2021/11/22 00:49:44;;;;;;;;;;;;;;;14.82;61.41;100559.16;5002126;27;98406;-66
2021/11/22 00:52:10;;;;;;;;;;;;;;;14.83;61.40;100565.41;4997617;27;100775;-58
2021/11/22 00:54:36;;;;;;;;;;;;;;;14.82;61.16;100571.94;4999844;27;97963;-58
2021/11/22 00:57:02;;;;;;;;;;;;;;;14.83;61.25;100579.78;5001074;27;111937;-65
2021/11/22 00:59:28;;;;;;;;;;;;;;;14.82;61.37;100586.31;5003098;27;98314;-57
2021/11/22 01:01:54;;;;;;;;;;;;;;;14.81;61.05;100592.81;5000613;27;127661;-58
2021/11/22 01:04:20;;;;;;;;;;;;;;;14.81;61.30;100595.53;5002901;27;98014;-65
2021/11/22 01:06:46;;;;;;;;;;;;;;;14.80;61.43;100596.63;5001506;27;127992;-58
2021/11/22 01:09:12;;;;;;;;;;;;;;;14.81;61.43;100594.72;5000561;27;114622;-58
2021/11/22 01:11:38;;;;;;;;;;;;;;;14.81;61.09;100603.66;5001583;27;97909;-64
2021/11/22 01:14:05;;;;;;;;;;;;;;;14.81;61.32;100600.94;5002317;27;97856;-58
2021/11/22 01:16:30;;;;;;;;;;;;;;;14.81;60.97;100600.94;5001095;27;100306;-57
2021/11/22 01:18:57;;;;;;;;;;;;;;;14.81;61.32;100603.66;5001274;27;126926;-64
2021/11/22 01:21:24;;;;;;;;;;;;;;;14.82;61.27;100605.31;5001021;27;121471;-64
2021/11/22 01:23:50;;;;;;;;;;;;;;;14.82;61.20;100608.00;5001255;27;108193;-64
2021/11/22 01:26:16;;;;;;;;;;;;;;;14.81;61.07;100611.81;5001229;27;98203;-58
2021/11/22 01:28:42;;;;;;;;;;;;;;;14.82;61.09;100615.34;4982350;27;98208;-65
2021/11/22 01:31:08;;;;;;;;;;;;;;;14.82;61.38;100616.16;5001326;27;128057;-65
2021/11/22 01:33:33;;;;;;;;;;;;;;;14.81;61.05;100619.94;5001683;27;117347;-65
2021/11/22 01:35:59;;;;;;;;;;;;;;;14.81;61.18;100619.94;5000599;27;126768;-65
2021/11/22 01:38:25;;;;;;;;;;;;;;;14.82;61.14;100624.28;5000354;27;127255;-58
2021/11/22 01:40:51;;;;;;;;;;;;;;;14.82;61.33;100626.22;5001143;27;126265;-58
2021/11/22 01:43:17;;;;;;;;;;;;;;;14.82;61.25;100618.06;5000725;27;117862;-58
2021/11/22 01:45:44;;;;;;;;;;;;;;;14.83;61.07;100622.38;5001088;27;112074;-57
2021/11/22 01:48:11;;;;;;;;;;;;;;;14.82;61.09;100621.59;4983466;27;98757;-57
2021/11/22 01:50:37;;;;;;;;;;;;;;;14.82;61.28;100631.63;5000944;27;98567;-58
2021/11/22 01:53:02;;;;;;;;;;;;;;;14.82;61.20;100626.22;4965824;27;105636;-65
2021/11/22 01:55:29;;;;;;;;;;;;;;;14.82;60.95;100637.88;5000765;27;109563;-65
2021/11/22 01:57:55;;;;;;;;;;;;;;;14.82;60.99;100634.34;5001374;27;100066;-58
2021/11/22 02:00:29;;;;;;;;;;;;;;;14.81;60.94;100633.50;5001210;27;97956;-58
2021/11/22 02:02:55;;;;;;;;;;;;;;;14.81;61.22;100636.22;5002439;27;97962;-57
2021/11/22 02:05:21;;;;;;;;;;;;;;;14.82;61.05;100635.16;5001555;27;98260;-61
2021/11/22 02:07:47;;;;;;;;;;;;;;;14.80;60.98;100636.53;5000785;27;98261;-57
2021/11/22 02:10:13;;;;;;;;;;;;;;;14.81;61.08;100635.41;5001757;27;98157;-65
2021/11/22 02:12:40;;;;;;;;;;;;;;;14.80;61.17;100631.91;4978816;27;117646;-58
2021/11/22 02:15:07;;;;;;;;;;;;;;;14.79;61.08;100641.16;5000760;27;98275;-57
2021/11/22 02:17:36;;;;;;;;;;;;;;;14.80;60.91;100648.19;5000373;27;114412;-58
2021/11/22 02:20:03;;;;;;;;;;;;;;;14.80;60.91;100644.66;5001051;27;98655;-58
2021/11/22 02:22:30;;;;;;;;;;;;;;;14.79;60.86;100643.88;5001291;27;97903;-58
2021/11/22 02:24:57;;;;;;;;;;;;;;;14.79;60.96;100654.72;5000327;27;98343;-65
2021/11/22 02:27:23;;;;;;;;;;;;;;;14.79;61.04;100649.28;5000072;27;114852;-58
2021/11/22 02:29:49;;;;;;;;;;;;;;;14.79;60.88;100652.00;5001714;27;98296;-65
2021/11/22 02:32:15;;;;;;;;;;;;;;;14.79;60.79;100643.06;5000423;27;118637;-65
2021/11/22 02:34:41;;;;;;;;;;;;;;;14.79;61.00;100648.50;5001413;27;98208;-58
2021/11/22 02:37:07;;;;;;;;;;;;;;;14.78;61.03;100644.97;5000802;27;98327;-58
2021/11/22 02:39:33;;;;;;;;;;;;;;;14.78;60.94;100650.41;4999933;27;127626;-58
2021/11/22 02:41:59;;;;;;;;;;;;;;;14.77;60.82;100651.47;5000641;27;102082;-64
2021/11/22 02:44:25;;;;;;;;;;;;;;;14.77;60.79;100648.75;5000684;27;125679;-65
2021/11/22 02:46:51;;;;;;;;;;;;;;;14.78;61.03;100649.59;4964753;27;128470;-64
2021/11/22 02:49:17;;;;;;;;;;;;;;;14.77;61.04;100661.53;4983995;27;97986;-66
2021/11/22 02:51:43;;;;;;;;;;;;;;;14.77;60.86;100666.94;5004046;27;97968;-58
2021/11/22 02:54:09;;;;;;;;;;;;;;;14.77;60.84;100666.94;5003367;27;128207;-65
2021/11/22 02:56:35;;;;;;;;;;;;;;;14.77;60.86;100669.66;5004004;27;101315;-58
2021/11/22 02:59:03;;;;;;;;;;;;;;;14.76;61.04;100682.44;5005173;27;98216;-64
2021/11/22 03:01:29;;;;;;;;;;;;;;;14.76;61.01;100682.44;4986164;27;97762;-64
2021/11/22 03:03:55;;;;;;;;;;;;;;;14.77;60.81;100688.66;5004656;27;111140;-65
2021/11/22 03:06:22;;;;;;;;;;;;;;;14.77;60.79;100694.09;5005043;27;98060;-58
2021/11/22 03:08:48;;;;;;;;;;;;;;;14.77;60.78;100699.50;5002268;27;115625;-57
2021/11/22 03:11:14;;;;;;;;;;;;;;;14.77;60.67;100696.81;5004874;27;97922;-58
2021/11/22 03:13:41;;;;;;;;;;;;;;;14.77;60.80;100703.03;5003107;27;121539;-65
2021/11/22 03:16:07;;;;;;;;;;;;;;;14.78;61.08;100703.88;5003169;27;98194;-58
2021/11/22 03:18:33;;;;;;;;;;;;;;;14.76;60.66;100701.41;5002887;27;120903;-57
2021/11/22 03:20:59;;;;;;;;;;;;;;;14.76;60.67;100700.63;5003225;27;117532;-58
2021/11/22 03:23:26;;;;;;;;;;;;;;;14.77;60.71;100707.66;5002897;27;118345;-58
2021/11/22 03:25:52;;;;;;;;;;;;;;;14.77;60.70;100705.75;4985887;27;98575;-58
2021/11/22 03:28:19;;;;;;;;;;;;;;;14.77;60.80;100711.16;5002852;27;97870;-58
2021/11/22 03:30:45;;;;;;;;;;;;;;;14.76;61.05;100704.13;5003386;27;98105;-65
2021/11/22 03:33:11;;;;;;;;;;;;;;;14.76;60.95;100711.47;5003485;27;98909;-65
2021/11/22 03:35:37;;;;;;;;;;;;;;;14.77;60.59;100715.78;5003471;27;98442;-58
2021/11/22 03:38:03;;;;;;;;;;;;;;;14.75;60.98;100724.22;5003155;27;97772;-65
2021/11/22 03:40:29;;;;;;;;;;;;;;;14.76;60.63;100725.84;5003861;27;98010;-65
2021/11/22 03:45:38;;;;;;;;;;;;;;;14.76;60.72;100733.97;5001097;27;98509;-57
2021/11/22 03:48:05;;;;;;;;;;;;;;;14.75;60.98;100735.09;5002411;27;120493;-57
2021/11/22 03:50:32;;;;;;;;;;;;;;;14.75;60.68;100735.09;5003008;27;109226;-65
2021/11/22 03:52:58;;;;;;;;;;;;;;;14.74;60.65;100738.91;5003337;27;98488;-65
2021/11/22 03:55:25;;;;;;;;;;;;;;;14.74;60.76;100741.63;5002284;27;127431;-65
2021/11/22 03:57:51;;;;;;;;;;;;;;;14.75;60.79;100748.66;5002680;27;97906;-65
2021/11/22 04:00:17;;;;;;;;;;;;;;;14.75;60.74;100745.13;5002371;27;111537;-64
2021/11/22 04:02:43;;;;;;;;;;;;;;;14.73;60.63;100750.81;5001904;27;126837;-65
2021/11/22 04:05:09;;;;;;;;;;;;;;;14.74;60.52;100757.91;5002028;27;126105;-58
2021/11/22 04:07:35;;;;;;;;;;;;;;;14.74;60.61;100766.03;5002271;27;103547;-58
2021/11/22 04:10:02;;;;;;;;;;;;;;;14.73;60.81;100762.50;5002972;27;97681;-65
2021/11/22 04:12:28;;;;;;;;;;;;;;;14.72;60.72;100765.50;5003251;27;98623;-58
2021/11/22 04:14:54;;;;;;;;;;;;;;;14.72;60.71;100765.50;5002488;27;97907;-65
2021/11/22 04:17:20;;;;;;;;;;;;;;;14.72;60.67;100774.44;5001030;27;128077;-65
2021/11/22 04:19:45;;;;;;;;;;;;;;;14.72;60.82;100770.94;5003495;27;97817;-65
2021/11/22 04:22:11;;;;;;;;;;;;;;;14.71;60.50;100770.13;5001483;27;127982;-65
2021/11/22 04:24:38;;;;;;;;;;;;;;;14.71;60.43;100769.31;5002994;27;98091;-58
2021/11/22 04:27:05;;;;;;;;;;;;;;;14.71;60.84;100775.56;5001717;27;102055;-65
2021/11/22 04:29:31;;;;;;;;;;;;;;;14.70;60.61;100792.94;5003082;27;97928;-65
2021/11/22 04:31:57;;;;;;;;;;;;;;;14.70;60.81;100794.84;5002101;27;98138;-65
2021/11/22 04:34:23;;;;;;;;;;;;;;;14.69;60.72;100799.44;5002500;27;127905;-65
2021/11/22 04:36:49;;;;;;;;;;;;;;;14.67;60.64;100796.22;4983081;27;98630;-66
2021/11/22 04:39:15;;;;;;;;;;;;;;;14.69;60.72;100809.47;5002419;27;97889;-57
2021/11/22 04:41:42;;;;;;;;;;;;;;;14.69;60.51;100810.28;5001418;27;128371;-57
2021/11/22 04:44:08;;;;;;;;;;;;;;;14.69;60.42;100812.19;4983971;27;98445;-58
2021/11/22 04:46:34;;;;;;;;;;;;;;;14.68;60.72;100819.53;5000401;27;117297;-57
2021/11/22 04:49:00;;;;;;;;;;;;;;;14.68;60.50;100824.16;5002121;27;97889;-65
2021/11/22 04:51:26;;;;;;;;;;;;;;;14.68;60.70;100830.38;5002004;27;98042;-58
2021/11/22 04:53:51;;;;;;;;;;;;;;;14.68;60.62;100830.38;5000226;27;129626;-66
2021/11/22 04:56:17;;;;;;;;;;;;;;;14.67;60.76;100831.47;5001435;27;126999;-57
2021/11/22 04:58:43;;;;;;;;;;;;;;;14.67;60.50;100826.06;5000787;27;116066;-58
2021/11/22 05:01:09;;;;;;;;;;;;;;;14.66;60.44;100827.16;5001509;27;116829;-57
2021/11/22 05:03:35;;;;;;;;;;;;;;;14.67;60.34;100836.09;4984080;27;98396;-65
2021/11/22 05:06:01;;;;;;;;;;;;;;;14.66;60.36;100838.00;4983174;27;108220;-58
2021/11/22 05:08:27;;;;;;;;;;;;;;;14.66;60.31;100842.63;5001448;27;117296;-58
2021/11/22 05:10:53;;;;;;;;;;;;;;;14.65;60.37;100849.94;5000514;27;128727;-65
2021/11/22 05:13:19;;;;;;;;;;;;;;;14.65;60.53;100858.06;4999957;27;129001;-65
2021/11/22 05:15:45;;;;;;;;;;;;;;;14.65;60.30;100862.69;5001780;27;111008;-65
2021/11/22 05:18:11;;;;;;;;;;;;;;;14.65;60.67;100868.13;5002090;27;97893;-65
2021/11/22 05:20:38;;;;;;;;;;;;;;;14.64;60.63;100870.03;5002640;27;98323;-65
2021/11/22 05:23:04;;;;;;;;;;;;;;;14.63;60.63;100868.41;5001655;27;99976;-57
2021/11/22 05:25:30;;;;;;;;;;;;;;;14.64;60.61;100872.75;5002111;27;98598;-65
2021/11/22 05:27:56;;;;;;;;;;;;;;;14.64;60.37;100877.34;5001726;27;98107;-57
2021/11/22 05:30:25;;;;;;;;;;;;;;;14.64;60.61;100878.16;4999164;27;129833;-57
2021/11/22 05:32:51;;;;;;;;;;;;;;;14.63;60.37;100883.88;4980773;27;98450;-58
2021/11/22 05:35:17;;;;;;;;;;;;;;;14.63;60.70;100892.03;5000063;27;116743;-57
2021/11/22 05:37:43;;;;;;;;;;;;;;;14.62;60.64;100893.94;5000447;27;104014;-57
2021/11/22 05:40:09;;;;;;;;;;;;;;;14.62;60.31;100893.09;4999562;27;99226;-58
2021/11/22 05:42:35;;;;;;;;;;;;;;;14.61;60.19;100905.06;4997733;27;98498;-58
2021/11/22 05:45:03;;;;;;;;;;;;;;;14.60;60.25;100911.56;4979102;27;97886;-58
2021/11/22 05:47:29;;;;;;;;;;;;;;;14.60;60.43;100908.88;4979158;27;99246;-58
2021/11/22 05:50:03;;;;;;;;;;;;;;;14.60;60.40;100911.56;4997211;27;108438;-58
2021/11/22 05:52:29;;;;;;;;;;;;;;;14.59;60.21;100915.38;4997416;27;98662;-58
2021/11/22 05:54:56;;;;;;;;;;;;;;;14.58;60.45;100911.88;4996619;27;99148;-57
2021/11/22 05:57:22;;;;;;;;;;;;;;;14.58;60.06;100927.31;4997121;27;98113;-58
2021/11/22 05:59:48;;;;;;;;;;;;;;;14.58;60.09;100927.31;4996557;27;111644;-57
2021/11/22 06:02:14;;;;;;;;;;;;;;;14.56;60.54;100930.31;4997178;27;98664;-58
2021/11/22 06:04:41;;;;;;;;;;;;;;;14.55;60.53;100933.31;4996571;27;98242;-57
2021/11/22 06:07:06;;;;;;;;;;;;;;;14.56;60.22;100937.66;4996836;27;98159;-58
2021/11/22 06:09:33;;;;;;;;;;;;;;;14.55;60.25;100944.19;4990168;27;98896;-58
2021/11/22 06:11:58;;;;;;;;;;;;;;;14.55;60.54;100944.19;4997552;27;99437;-58
2021/11/22 06:14:24;;;;;;;;;;;;;;;14.53;60.16;100951.78;4992741;27;127503;-58
2021/11/22 06:16:50;;;;;;;;;;;;;;;14.53;60.51;100949.88;4996666;27;97862;-57
2021/11/22 06:19:16;;;;;;;;;;;;;;;14.52;60.25;100945.53;4995601;27;128042;-58
2021/11/22 06:21:42;;;;;;;;;;;;;;;14.51;59.95;100956.69;4995532;27;98370;-57
2021/11/22 06:24:08;;;;;;;;;;;;;;;14.49;60.46;100959.66;4998353;27;127708;-57
2021/11/22 06:26:34;;;;;;;;;;;;;;;14.48;60.06;100968.88;4999746;27;117336;-58
2021/11/22 06:29:00;;;;;;;;;;;;;;;14.47;60.35;100959.91;4970455;27;98913;-57
2021/11/22 06:31:26;;;;;;;;;;;;;;;14.47;60.38;100973.47;5000624;27;98221;-57
2021/11/22 06:33:52;;;;;;;;;;;;;;;14.47;60.33;100976.19;4999068;27;112311;-58
2021/11/22 06:36:18;;;;;;;;;;;;;;;14.47;60.41;100984.34;5000141;27;116665;-58
2021/11/22 06:38:44;;;;;;;;;;;;;;;14.47;59.86;100983.53;5001042;27;98627;-58
2021/11/22 06:41:10;;;;;;;;;;;;;;;14.47;59.91;100987.03;4999991;27;124370;-58
2021/11/22 06:43:37;;;;;;;;;;;;;;;14.47;60.38;100991.66;4999518;27;124854;-57
2021/11/22 06:46:03;;;;;;;;;;;;;;;14.46;60.26;100993.56;5001194;27;98019;-58
2021/11/22 06:48:29;;;;;;;;;;;;;;;14.46;59.92;101003.56;4964305;27;100218;-58
2021/11/22 06:50:55;;;;;;;;;;;;;;;14.46;60.33;101009.84;5000328;27;98474;-57
2021/11/22 06:53:22;;;;;;;;;;;;;;;14.46;59.85;101011.72;4981017;27;128623;-57
2021/11/22 06:55:51;;;;;;;;;;;;;;;14.46;60.11;101017.13;4979816;27;98001;-57
2021/11/22 06:58:17;;;;;;;;;;;;;;;14.47;60.17;101026.91;4998664;27;99069;-65
2021/11/22 07:00:43;;;;;;;;;;;;;;;14.48;59.77;101023.91;4981679;27;98092;-58
2021/11/22 07:03:09;;;;;;;;;;;;;;;14.50;60.15;101031.78;5001266;27;98152;-65
2021/11/22 07:05:35;;;;;;;;;;;;;;;14.52;59.79;101028.81;4981898;27;117445;-65
2021/11/22 07:08:04;;;;;;;;;;;;;;;14.53;59.81;101025.81;4982136;27;98419;-65
2021/11/22 07:10:30;;;;;;;;;;;;;;;14.55;59.96;101034.50;5000696;27;98677;-58
2021/11/22 07:12:56;;;;;;;;;;;;;;;14.57;59.68;101032.31;5000038;27;110140;-65
2021/11/22 07:15:22;;;;;;;;;;;;;;;14.58;60.21;101035.81;4981619;27;97972;-65
2021/11/22 07:17:49;;;;;;;;;;;;;;;14.58;59.60;101042.09;4995373;27;98894;-58
2021/11/22 07:20:15;;;;;;;;;;;;;;;14.59;60.07;101051.03;5000256;27;98861;-58
2021/11/22 07:22:41;;;;;;;;;;;;;;;14.58;59.90;101054.81;5001563;27;98341;-57
2021/11/22 07:25:07;;;;;;;;;;;;;;;14.58;59.99;101057.53;4979819;27;116154;-58
2021/11/22 07:27:33;;;;;;;;;;;;;;;14.57;59.93;101067.56;4998899;27;98492;-58
2021/11/22 07:29:59;;;;;;;;;;;;;;;14.56;59.72;101063.25;4999633;27;108250;-66
2021/11/22 07:32:28;;;;;;;;;;;;;;;14.56;60.16;101062.44;5000262;27;98330;-65
2021/11/22 07:34:55;;;;;;;;;;;;;;;14.57;59.76;101072.19;5000213;27;98071;-65
2021/11/22 07:37:21;;;;;;;;;;;;;;;14.56;59.97;101068.66;5000946;27;98413;-65
2021/11/22 07:39:47;;;;;;;;;;;;;;;14.57;60.10;101078.41;4981876;27;102169;-66
2021/11/22 07:42:13;;;;;;;;;;;;;;;14.58;59.93;101076.50;4999600;27;127022;-66
2021/11/22 07:44:39;;;;;;;;;;;;;;;14.56;59.99;101081.41;5000286;27;97876;-64
2021/11/22 07:47:05;;;;;;;;;;;;;;;14.56;59.75;101087.66;5000611;27;99190;-65
2021/11/22 07:49:32;;;;;;;;;;;;;;;14.56;59.82;101084.13;4982151;27;98857;-65
2021/11/22 07:51:57;;;;;;;;;;;;;;;14.55;60.01;101088.75;4999882;27;98041;-65
2021/11/22 07:54:23;;;;;;;;;;;;;;;14.55;59.76;101088.75;4999560;27;118360;-66
2021/11/22 07:56:49;;;;;;;;;;;;;;;14.54;60.05;101095.28;4981505;27;98584;-65
2021/11/22 07:59:15;;;;;;;;;;;;;;;14.55;59.71;101096.09;4981112;27;127453;-66
2021/11/22 08:01:41;;;;;;;;;;;;;;;14.56;60.02;101103.94;4999128;27;116043;-65
2021/11/22 08:04:12;;;;;;;;;;;;;;;14.59;59.73;101110.72;5000881;27;98536;-65
2021/11/22 08:06:40;;;;;;;;;;;;;;;14.59;60.05;101110.72;5000247;27;98445;-65
2021/11/22 08:09:12;;;;;;;;;;;;;;;14.60;59.77;101109.63;4981829;27;98440;-65
2021/11/22 08:11:52;;;;;;;;;;;;;;;14.60;59.73;101123.19;4982695;27;98132;-65
2021/11/22 08:14:18;;;;;;;;;;;;;;;14.62;60.10;101121.00;4984592;27;98001;-65
2021/11/22 08:16:44;;;;;;;;;;;;;;;14.63;60.00;101126.16;4999355;27;116833;-65
2021/11/22 08:19:10;;;;;;;;;;;;;;;14.66;59.65;101122.88;4999949;27;107120;-65
2021/11/22 08:21:36;;;;;;;;;;;;;;;14.68;59.64;101134.25;4980017;27;123598;-65
2021/11/22 08:24:02;;;;;;;;;;;;;;;14.68;59.72;101142.41;5002026;27;97888;-65
2021/11/22 08:26:28;;;;;;;;;;;;;;;14.70;59.74;101147.56;4999142;27;122088;-64
2021/11/22 08:28:54;;;;;;;;;;;;;;;14.68;59.82;101149.72;4998809;27;104363;-65
2021/11/22 08:31:20;;;;;;;;;;;;;;;14.71;59.77;101162.75;5000465;27;97951;-65
2021/11/22 08:33:46;;;;;;;;;;;;;;;14.75;59.73;101158.38;4999337;27;118129;-65
2021/11/22 08:36:12;;;;;;;;;;;;;;;14.79;59.88;101164.06;4998804;27;127582;-65
2021/11/22 08:38:38;;;;;;;;;;;;;;;14.79;59.70;101167.59;4999016;27;127982;-64
2021/11/22 08:41:04;;;;;;;;;;;;;;;14.83;59.63;101176.00;4999463;27;127172;-65
2021/11/22 08:43:30;;;;;;;;;;;;;;;14.87;59.82;101182.50;4981764;27;98152;-65
2021/11/22 08:45:56;;;;;;;;;;;;;;;14.89;59.50;101183.81;4999752;27;98619;-65
2021/11/22 08:48:25;;;;;;;;;;;;;;;14.92;59.53;101193.31;4981160;27;108429;-65
2021/11/22 08:50:51;;;;;;;;;;;;;;;14.92;59.50;101188.69;4979386;27;97688;-66
2021/11/22 08:53:17;;;;;;;;;;;;;;;15.01;59.39;101197.06;4979897;27;117408;-65
2021/11/22 08:55:43;;;;;;;;;;;;;;;15.03;59.58;101200.31;4997979;27;128572;-65
2021/11/22 08:58:09;;;;;;;;;;;;;;;15.09;59.52;101201.94;4997647;27;128631;-65
2021/11/22 09:00:36;;;;;;;;;;;;;;;15.15;59.46;101208.13;4998457;27;128330;-66
2021/11/22 09:03:02;;;;;;;;;;;;;;;15.23;59.45;101210.25;4999960;27;107195;-65
2021/11/22 09:05:28;;;;;;;;;;;;;;;15.31;59.19;101212.38;4999257;27;121217;-64
2021/11/22 09:07:54;;;;;;;;;;;;;;;15.33;59.06;101212.94;4983079;27;98230;-65
2021/11/22 09:10:21;;;;;;;;;;;;;;;15.36;58.97;101217.78;5001595;27;98135;-65
2021/11/22 09:12:47;;;;;;;;;;;;;;;15.38;59.17;101220.22;4981806;27;98331;-65
2021/11/22 09:15:13;;;;;;;;;;;;;;;15.34;59.20;101222.69;4998613;27;128281;-65
2021/11/22 09:17:39;;;;;;;;;;;;;;;15.32;59.25;101235.72;4979643;27;98382;-65
2021/11/22 09:20:08;;;;;;;;;;;;;;;15.31;59.47;101244.97;4998362;27;127701;-66
2021/11/22 09:22:34;;;;;;;;;;;;;;;15.26;59.63;101239.56;4980820;27;98170;-57
2021/11/22 09:25:01;;;;;;;;;;;;;;;15.26;59.59;101239.56;4979124;27;127768;-58
2021/11/22 09:27:26;;;;;;;;;;;;;;;15.29;59.79;101241.75;4980794;27;98650;-58
2021/11/22 09:29:52;;;;;;;;;;;;;;;15.30;59.56;101243.34;4997945;27;126169;-58
2021/11/22 09:32:18;;;;;;;;;;;;;;;15.35;59.61;101251.47;4999280;27;97943;-58
2021/11/22 09:34:44;;;;;;;;;;;;;;;15.41;59.53;101252.28;4997647;27;128258;-58
2021/11/22 09:37:10;;;;;;;;;;;;;;;15.45;59.41;101248.72;4996829;27;126131;-65
2021/11/22 09:39:36;;;;;;;;;;;;;;;15.50;59.13;101256.00;4998331;27;126372;-65
2021/11/22 09:42:02;;;;;;;;;;;;;;;15.56;59.36;101254.91;4997261;27;117572;-58
2021/11/22 09:44:28;;;;;;;;;;;;;;;15.59;59.04;101257.03;4998169;27;119088;-58
2021/11/22 09:46:54;;;;;;;;;;;;;;;15.64;59.24;101262.44;4978313;27;119270;-65
2021/11/22 09:49:21;;;;;;;;;;;;;;;15.73;59.03;101268.13;4979603;27;98095;-57
2021/11/22 09:51:47;;;;;;;;;;;;;;;15.79;58.94;101260.72;4998538;27;97855;-65
2021/11/22 09:54:12;;;;;;;;;;;;;;;15.83;59.04;101251.72;4997843;27;128744;-57
2021/11/22 09:56:38;;;;;;;;;;;;;;;15.87;59.03;101260.13;4998351;27;105105;-57
2021/11/22 09:59:05;;;;;;;;;;;;;;;15.92;58.89;101265.56;4997329;27;98166;-58
2021/11/22 10:01:34;;;;;;;;;;;;;;;15.91;59.05;101262.00;4998999;27;97753;-58
2021/11/22 10:04:02;;;;;;;;;;;;;;;15.95;58.75;101268.50;4998219;27;98130;-58
2021/11/22 10:06:44;;;;;;;;;;;;;;;16.03;58.69;101266.25;4998565;27;98491;-65
2021/11/22 10:09:38;;;;;;;;;;;;;;;16.03;58.67;101261.63;4975116;27;108515;-58
2021/11/22 10:12:08;;;;;;;;;;;;;;;16.06;58.54;101268.41;4975729;27;98109;-58
2021/11/22 10:14:40;;;;;;;;;;;;;;;16.06;58.63;101273.84;4992239;27;98385;-58
2021/11/22 10:17:34;;;;;;;;;;;;;;;16.02;58.94;101275.53;4978828;27;98824;-57
2021/11/22 10:20:06;;;;;;;;;;;;;;;15.97;59.06;101281.00;4997428;27;98717;-64
2021/11/22 10:22:50;;;;;;;;;;;;;;;15.96;58.99;101274.75;4998256;27;97983;-65
2021/11/22 10:25:34;;;;;;;;;;;;;;;15.96;59.05;101282.91;4996196;27;99015;-57
2021/11/22 10:28:06;;;;;;;;;;;;;;;15.95;59.20;101279.38;4997832;27;98323;-65
2021/11/22 10:30:35;;;;;;;;;;;;;;;15.95;59.01;101286.72;4962926;27;100217;-58
2021/11/22 10:33:02;;;;;;;;;;;;;;;15.98;59.13;101290.78;4998256;27;99381;-65
2021/11/22 10:35:29;;;;;;;;;;;;;;;15.97;59.04;101292.69;4996916;27;97961;-64
2021/11/22 10:38:06;;;;;;;;;;;;;;;16.01;59.14;101292.94;4999656;27;100302;-65
2021/11/22 10:40:34;;;;;;;;;;;;;;;16.08;58.83;101296.97;5001816;27;97908;-65
2021/11/22 10:43:00;;;;;;;;;;;;;;;16.19;58.62;101295.78;4993867;27;98342;-65
2021/11/22 10:45:39;;;;;;;;;;;;;;;16.30;58.69;101296.47;4998098;27;120252;-65
2021/11/22 10:48:13;;;;;;;;;;;;;;;16.34;58.67;101294.81;4997761;27;113330;-65
2021/11/22 10:50:47;;;;;;;;;;;;;;;16.44;58.52;101300.19;4998816;27;97907;-65
2021/11/22 10:53:13;;;;;;;;;;;;;;;16.53;58.27;101300.34;4998482;27;98081;-65
2021/11/22 10:55:44;;;;;;;;;;;;;;;16.62;58.20;101304.09;4977938;27;128866;-65
2021/11/22 10:58:14;;;;;;;;;;;;;;;16.72;57.98;101308.63;4997511;27;97874;-65
2021/11/22 11:00:40;;;;;;;;;;;;;;;16.82;57.96;101303.09;4962328;27;118839;-59
2021/11/22 11:03:06;;;;;;;;;;;;;;;16.98;57.74;101305.63;4997218;27;115887;-65
2021/11/22 11:05:38;;;;;;;;;;;;;;;17.02;57.74;101312.97;4997849;27;98636;-65
2021/11/22 11:08:08;;;;;;;;;;;;;;;17.07;57.77;101317.53;4996726;27;118331;-58
2021/11/22 11:10:34;;;;;;;;;;;;;;;17.08;58.23;101317.22;4992049;27;97913;-57
2021/11/22 11:13:00;;;;;;;;;;;;;;;17.05;57.99;101319.72;5001668;27;98186;-58
2021/11/22 11:15:26;;;;;;;;;;;;;;;17.07;58.05;101314.81;5001144;27;99247;-65
2021/11/22 11:17:52;;;;;;;;;;;;;;;17.06;58.07;101322.16;4999427;27;128220;-58
2021/11/22 11:20:20;;;;;;;;;;;;;;;17.10;58.07;101319.69;5000730;27;98022;-58
2021/11/22 11:22:46;;;;;;;;;;;;;;;17.11;58.14;101321.28;5001332;27;97947;-65
2021/11/22 11:25:12;;;;;;;;;;;;;;;17.20;58.08;101322.25;4999832;27;117652;-58
2021/11/22 11:27:40;;;;;;;;;;;;;;;17.31;57.93;101322.94;4981964;27;98498;-65
2021/11/22 11:30:13;;;;;;;;;;;;;;;17.36;57.93;101328.34;5000259;27;98238;-65
2021/11/22 11:32:39;;;;;;;;;;;;;;;17.35;57.90;101332.16;5001655;27;97992;-58
2021/11/22 11:35:08;;;;;;;;;;;;;;;17.32;58.15;101324.56;4998827;27;127099;-58
2021/11/22 11:37:44;;;;;;;;;;;;;;;17.39;57.93;101330.47;4981814;27;99186;-66
2021/11/22 11:40:24;;;;;;;;;;;;;;;17.47;57.80;101329.03;5000706;27;98033;-58
2021/11/22 11:43:08;;;;;;;;;;;;;;;17.43;57.88;101326.88;4995304;27;98004;-57
2021/11/22 11:45:47;;;;;;;;;;;;;;;17.32;58.21;101339.00;4994930;27;98688;-58
2021/11/22 11:48:16;;;;;;;;;;;;;;;17.27;58.25;101341.00;4965922;27;97837;-60
2021/11/22 11:50:44;;;;;;;;;;;;;;;17.20;58.45;101343.25;4999953;27;98482;-65
2021/11/22 11:53:12;;;;;;;;;;;;;;;17.20;58.42;101341.34;5000888;27;98138;-58
2021/11/22 11:55:38;;;;;;;;;;;;;;;17.23;58.40;101346.19;5000306;27;97906;-65
2021/11/22 11:58:25;;;;;;;;;;;;;;;17.16;58.53;101349.28;4980329;27;122687;-66
2021/11/22 12:01:10;;;;;;;;;;;;;;;17.05;58.60;101350.47;5000418;27;98227;-58
2021/11/22 12:04:02;;;;;;;;;;;;;;;16.97;58.66;101344.88;5000994;27;98141;-58
2021/11/22 12:06:50;;;;;;;;;;;;;;;16.91;58.61;101346.84;5000233;27;98035;-57
2021/11/22 12:09:32;;;;;;;;;;;;;;;16.81;58.59;101339.56;5000404;27;98540;-58
2021/11/22 12:11:59;;;;;;;;;;;;;;;16.72;58.90;101348.63;4999225;27;98120;-65
2021/11/22 12:14:49;;;;;;;;;;;;;;;16.69;58.87;101353.53;5000651;27;98213;-64
2021/11/22 12:17:34;;;;;;;;;;;;;;;16.70;58.78;101359.78;4999613;27;98119;-58
2021/11/22 12:20:05;;;;;;;;;;;;;;;16.67;58.77;101357.66;5000209;27;98828;-65
2021/11/22 12:22:38;;;;;;;;;;;;;;;16.73;58.60;101364.69;4999608;27;98159;-57
2021/11/22 12:25:05;;;;;;;;;;;;;;;16.77;58.57;101360.31;5001049;27;97915;-58
2021/11/22 12:27:37;;;;;;;;;;;;;;;16.80;58.56;101367.09;4998512;27;112616;-65
2021/11/22 12:30:28;;;;;;;;;;;;;;;16.83;58.51;101356.44;5000118;27;98478;-65
2021/11/22 12:33:13;;;;;;;;;;;;;;;16.82;58.49;101351.28;4999152;27;98095;-65
2021/11/22 12:35:39;;;;;;;;;;;;;;;16.87;58.49;101348.53;5000376;27;97814;-65
2021/11/22 12:38:56;;;;;;;;;;;;;;;16.91;58.34;101355.00;4999889;27;123519;-65